createdAt,value
2022-09-12T00:00:04.724Z,100604.84
2022-09-12T00:05:08.434Z,100597.19
2022-09-12T00:10:07.154Z,100589.94
2022-09-12T00:15:04.456Z,100578.63
2022-09-12T00:20:04.034Z,100585.09
2022-09-12T00:25:01.205Z,100571.75
2022-09-12T00:29:58.593Z,100580.34
2022-09-12T00:34:55.276Z,100577.00
2022-09-12T00:39:51.973Z,100568.88
2022-09-12T00:44:49.797Z,100557.38
2022-09-12T00:49:48.428Z,100572.25
2022-09-12T00:54:47.688Z,100588.84
2022-09-12T00:59:46.891Z,100583.19
2022-09-12T01:04:44.376Z,100579.91
2022-09-12T01:09:42.771Z,100576.50
2022-09-12T01:14:40.660Z,100572.72
2022-09-12T01:19:52.323Z,100566.81
2022-09-12T01:24:54.677Z,100566.56
2022-09-12T01:30:04.171Z,100581.94
2022-09-12T01:35:05.199Z,100574.31
2022-09-12T01:40:07.037Z,100596.81
2022-09-12T01:45:08.232Z,100582.00
2022-09-12T01:50:07.089Z,100581.41
2022-09-12T01:55:09.745Z,100576.03
2022-09-12T02:00:10.089Z,100590.72
2022-09-12T02:05:17.342Z,100586.00
2022-09-12T02:10:15.905Z,100590.47
2022-09-12T02:15:12.756Z,100577.19
2022-09-12T02:20:25.891Z,100579.16
2022-09-12T02:25:31.364Z,100579.53
2022-09-12T02:30:31.272Z,100568.28
2022-09-12T02:35:33.370Z,100576.53
2022-09-12T02:40:30.395Z,100559.66
2022-09-12T02:45:31.702Z,100565.53
2022-09-12T02:50:28.719Z,100569.31
2022-09-12T02:55:25.899Z,100558.47
2022-09-12T03:00:23.572Z,100580.28
2022-09-12T03:05:24.782Z,100576.78
2022-09-12T03:10:24.704Z,100581.66
2022-09-12T03:15:28.954Z,100570.38
2022-09-12T03:20:32.982Z,100571.78
2022-09-12T03:25:33.552Z,100580.25
2022-09-12T03:30:30.442Z,100584.66
2022-09-12T03:35:27.083Z,100579.25
2022-09-12T03:40:24.345Z,100580.63
2022-09-12T03:45:21.421Z,100591.56
2022-09-12T03:50:18.028Z,100605.81
2022-09-12T03:55:14.777Z,100604.03
2022-09-12T04:00:16.403Z,100604.00
2022-09-12T04:05:15.820Z,100603.66
2022-09-12T04:10:12.428Z,100609.34
2022-09-12T04:15:09.577Z,100610.94
2022-09-12T04:20:07.257Z,100618.47
2022-09-12T04:25:06.929Z,100606.69
2022-09-12T04:30:03.941Z,100641.63
2022-09-12T04:35:00.449Z,100653.22
2022-09-12T04:39:58.768Z,100652.41
2022-09-12T04:44:55.638Z,100664.81
2022-09-12T04:49:52.483Z,100664.38
2022-09-12T04:54:55.820Z,100670.25
2022-09-12T04:59:53.173Z,100681.16
2022-09-12T05:04:49.909Z,100679.56
2022-09-12T05:11:24.776Z,100683.72
2022-09-12T05:15:14.608Z,100684.81
2022-09-12T05:20:12.359Z,100673.50
2022-09-12T05:25:09.619Z,100678.69
2022-09-12T05:30:07.016Z,100671.38
2022-09-12T05:35:06.435Z,100669.00
2022-09-12T05:40:07.076Z,100666.66
2022-09-12T05:45:04.341Z,100677.22
2022-09-12T05:50:01.256Z,100680.06
2022-09-12T05:55:00.606Z,100690.38
2022-09-12T05:59:58.614Z,100685.19
2022-09-12T06:05:00.226Z,100689.94
2022-09-12T06:09:58.698Z,100680.78
2022-09-12T06:14:56.298Z,100688.34
2022-09-12T06:19:53.026Z,100682.59
2022-09-12T06:24:49.789Z,100680.97
2022-09-12T06:29:46.673Z,100681.81
2022-09-12T06:34:47.994Z,100685.00
2022-09-12T06:39:44.861Z,100685.94
2022-09-12T06:44:41.554Z,100680.97
2022-09-12T06:49:38.276Z,100678.38
2022-09-12T06:54:37.876Z,100680.47
2022-09-12T06:59:34.789Z,100682.72
2022-09-12T07:04:33.280Z,100674.13
2022-09-12T07:09:30.311Z,100673.25
2022-09-12T07:14:50.597Z,100659.31
2022-09-12T07:19:54.942Z,100678.78
2022-09-12T07:24:55.289Z,100684.50
2022-09-12T07:29:51.992Z,100689.97
2022-09-12T07:34:50.539Z,100677.13
2022-09-12T07:39:48.035Z,100690.47
2022-09-12T07:44:45.093Z,100681.00
2022-09-12T07:49:44.554Z,100666.69
2022-09-12T07:54:41.302Z,100682.69
2022-09-12T08:06:23.323Z,100669.34
2022-09-12T08:11:21.347Z,100670.50
2022-09-12T08:16:21.966Z,100658.53
2022-09-12T08:21:22.650Z,100664.59
2022-09-12T08:26:22.940Z,100653.16
2022-09-12T08:31:23.407Z,100657.09
2022-09-12T08:36:23.991Z,100649.38
2022-09-12T08:41:23.802Z,100634.66
2022-09-12T08:46:22.920Z,100635.69
2022-09-12T08:51:20.770Z,100632.06
2022-09-12T08:56:21.664Z,100619.00
2022-09-12T09:01:23.602Z,100619.16
2022-09-12T09:06:26.286Z,100608.66
2022-09-12T09:11:37.666Z,100604.19
2022-09-12T09:16:43.733Z,100600.47
2022-09-12T09:21:43.030Z,100561.75
2022-09-12T09:26:45.483Z,100586.72
2022-09-12T09:31:42.339Z,100569.69
2022-09-12T09:36:46.703Z,100570.13
2022-09-12T09:41:54.428Z,100576.47
2022-09-12T09:46:55.596Z,100569.13
2022-09-12T09:51:54.856Z,100576.88
2022-09-12T09:56:54.958Z,100559.69
2022-09-12T10:01:54.462Z,100569.13
2022-09-12T10:06:57.850Z,100566.53
2022-09-12T10:11:56.543Z,100564.13
2022-09-12T10:16:53.298Z,100551.50
2022-09-12T10:21:52.980Z,100560.94
2022-09-12T10:26:56.709Z,100559.81
2022-09-12T10:31:56.111Z,100553.06
2022-09-12T10:36:54.060Z,100555.63
2022-09-12T10:41:50.815Z,100543.91
2022-09-12T10:46:51.211Z,100551.34
2022-09-12T10:51:51.536Z,100532.44
2022-09-12T10:56:56.541Z,100535.38
2022-09-12T11:02:00.712Z,100545.47
2022-09-12T11:07:05.050Z,100544.13
2022-09-12T11:12:08.698Z,100531.81
2022-09-12T11:17:13.550Z,100543.72
2022-09-12T11:22:20.354Z,100532.19
2022-09-12T11:27:30.863Z,100530.19
2022-09-12T11:32:44.777Z,100524.28
2022-09-12T11:37:59.935Z,100510.38
2022-09-12T11:43:00.795Z,100514.09
2022-09-12T11:47:59.487Z,100509.31
2022-09-12T11:53:02.676Z,100500.25
2022-09-12T11:58:00.288Z,100488.94
2022-09-12T12:03:02.742Z,100470.59
2022-09-12T12:08:00.560Z,100490.94
2022-09-12T12:12:58.941Z,100485.69
2022-09-12T12:18:06.971Z,100486.44
2022-09-12T12:23:05.602Z,100477.28
2022-09-12T12:28:05.003Z,100478.38
2022-09-12T12:33:26.542Z,100470.34
2022-09-12T12:38:40.083Z,100461.91
2022-09-12T12:54:58.632Z,100457.09
2022-09-12T13:00:21.492Z,100462.00
2022-09-12T13:05:20.911Z,100452.84
2022-09-12T13:10:23.451Z,100467.38
2022-09-12T13:16:01.256Z,100464.34
2022-09-12T13:21:13.527Z,100470.69
2022-09-12T13:26:12.357Z,100466.50
2022-09-12T13:31:12.574Z,100465.09
2022-09-12T13:36:43.784Z,100467.50
2022-09-12T13:41:51.086Z,100472.03
2022-09-12T13:46:48.514Z,100470.88
2022-09-12T13:51:45.328Z,100468.69
2022-09-12T13:56:47.937Z,100462.63
2022-09-12T14:01:45.943Z,100469.63
2022-09-12T14:06:58.111Z,100464.59
2022-09-12T14:11:56.237Z,100463.63
2022-09-12T14:16:54.316Z,100471.53
2022-09-12T14:21:52.699Z,100459.00
2022-09-12T14:26:51.468Z,100458.94
2022-09-12T14:31:59.783Z,100462.63
2022-09-12T14:36:57.274Z,100467.50
2022-09-12T14:49:00.684Z,100456.91
2022-09-12T14:53:59.027Z,100451.25
2022-09-12T14:59:22.855Z,100453.56
2022-09-12T15:04:34.402Z,100458.25
2022-09-12T15:09:43.908Z,100464.44
2022-09-12T15:14:43.488Z,100480.94
2022-09-12T15:19:41.406Z,100484.72
2022-09-12T15:24:39.414Z,100492.00
2022-09-12T15:29:36.244Z,100496.34
2022-09-12T15:34:34.156Z,100488.00
2022-09-12T15:39:30.905Z,100504.19
2022-09-12T15:44:28.220Z,100498.66
2022-09-12T15:49:33.886Z,100498.50
2022-09-12T15:54:32.948Z,100503.75
2022-09-12T15:59:30.522Z,100504.31
2022-09-12T16:04:27.896Z,100504.69
2022-09-12T16:09:24.657Z,100509.03
2022-09-12T16:14:23.038Z,100519.44
2022-09-12T16:19:21.553Z,100518.34
2022-09-12T16:24:18.300Z,100516.13
2022-09-12T16:29:15.063Z,100526.78
2022-09-12T16:34:16.529Z,100533.63
2022-09-12T16:39:16.336Z,100532.66
2022-09-12T16:44:13.165Z,100534.75
2022-09-12T16:49:10.344Z,100533.59
2022-09-12T16:54:07.135Z,100542.16
2022-09-12T16:59:09.175Z,100550.38
2022-09-12T17:04:06.209Z,100550.09
2022-09-12T17:10:04.057Z,100573.28
2022-09-12T17:15:05.937Z,100587.31
2022-09-12T17:20:05.114Z,100617.31
2022-09-12T17:25:01.875Z,100626.06
2022-09-12T17:29:58.522Z,100643.44
2022-09-12T17:35:23.750Z,100635.97
2022-09-12T17:40:32.612Z,100646.69
2022-09-12T17:45:38.134Z,100648.94
2022-09-12T17:50:38.834Z,100665.72
2022-09-12T17:55:43.090Z,100649.47
2022-09-12T18:01:00.433Z,100638.34
2022-09-12T18:05:57.102Z,100645.28
2022-09-12T18:10:54.454Z,100652.38
2022-09-12T18:15:51.352Z,100649.69
2022-09-12T18:20:51.263Z,100646.44
2022-09-12T18:25:48.277Z,100638.16
2022-09-12T18:30:45.597Z,100639.50
2022-09-12T18:35:42.412Z,100638.03
2022-09-12T18:40:39.322Z,100621.91
2022-09-12T18:45:36.079Z,100641.44
2022-09-12T18:50:33.547Z,100644.56
2022-09-12T18:55:30.408Z,100639.94
2022-09-12T19:00:27.259Z,100644.69
2022-09-12T19:05:24.089Z,100631.53
2022-09-12T19:10:21.513Z,100657.34
2022-09-12T19:15:21.023Z,100651.50
2022-09-12T19:20:18.089Z,100655.38
2022-09-12T19:25:14.941Z,100663.78
2022-09-12T19:30:12.633Z,100664.34
2022-09-12T19:35:12.268Z,100678.47
2022-09-12T19:40:09.356Z,100682.31
2022-09-12T19:45:06.806Z,100686.41
2022-09-12T19:50:04.942Z,100679.47
2022-09-12T19:55:01.620Z,100678.28
2022-09-12T19:59:58.327Z,100682.38
2022-09-12T20:04:55.075Z,100686.34
2022-09-12T20:09:52.472Z,100688.94
2022-09-12T20:14:49.140Z,100693.13
2022-09-12T20:19:46.001Z,100692.97
2022-09-12T20:24:42.826Z,100699.38
2022-09-12T20:29:40.412Z,100719.13
2022-09-12T20:34:37.114Z,100710.31
2022-09-12T20:39:33.832Z,100717.59
2022-09-12T20:44:30.538Z,100718.28
2022-09-12T20:49:27.964Z,100718.84
2022-09-12T20:54:24.972Z,100726.47
2022-09-12T20:59:21.929Z,100731.94
2022-09-12T21:04:18.838Z,100733.06
2022-09-12T21:09:16.370Z,100736.31
2022-09-12T21:14:16.212Z,100737.97
2022-09-12T21:19:13.368Z,100741.34
2022-09-12T21:24:13.031Z,100746.34
2022-09-12T21:29:10.477Z,100748.84
2022-09-12T21:34:07.035Z,100750.00
2022-09-12T21:39:04.320Z,100761.69
2022-09-12T21:44:01.247Z,100754.84
2022-09-12T21:49:00.519Z,100759.09
2022-09-12T21:53:57.092Z,100756.41
2022-09-12T21:58:55.451Z,100759.97
2022-09-12T22:03:52.543Z,100766.63
2022-09-12T22:08:49.816Z,100761.75
2022-09-12T22:13:46.362Z,100774.56
2022-09-12T22:18:42.883Z,100779.56
2022-09-12T22:23:59.678Z,100783.56
2022-09-12T22:28:56.864Z,100780.06
2022-09-12T22:33:54.118Z,100754.34
2022-09-12T22:38:50.746Z,100780.47
2022-09-12T22:43:47.433Z,100768.28
2022-09-12T22:48:45.105Z,100776.13
2022-09-12T22:53:41.961Z,100780.09
2022-09-12T22:58:38.533Z,100775.47
2022-09-12T23:03:35.672Z,100771.59
2022-09-12T23:08:33.591Z,100780.06
2022-09-12T23:13:30.405Z,100774.97
2022-09-12T23:18:27.364Z,100775.31
2022-09-12T23:23:23.847Z,100778.13
2022-09-12T23:28:22.066Z,100773.84
2022-09-12T23:33:18.580Z,100765.81
2022-09-12T23:38:15.196Z,100762.78
2022-09-12T23:43:11.787Z,100756.41
2022-09-12T23:48:09.174Z,100774.47
2022-09-12T23:53:06.442Z,100788.63
2022-09-12T23:58:03.003Z,100783.28
